Time;durP1;ratioP1;P1;durP2;ratioP2;P2;SDS_P1;SDS_P2;PMS_P1;PMS_P2;Temp;Humidity;BMP_temperature;BMP_pressure;BME280_temperature;BME280_humidity;BME280_pressure;Samples;Min_cycle;Max_cycle;Signal;HPM_P1;HPM_P2
2023/02/19 00:01:37;;;;;;;5.50;3.80;;;10.30;99.90;;;;;;5058026;28;20033;-70
2023/02/19 00:04:24;;;;;;;4.43;3.50;;;10.40;99.90;;;;;;5038030;28;20033;-69
2023/02/19 00:06:50;;;;;;;4.95;3.40;;;10.40;99.90;;;;;;5054999;28;20045;-68
2023/02/19 00:09:18;;;;;;;3.90;3.20;;;10.40;99.90;;;;;;5055638;28;20359;-68
2023/02/19 00:11:43;;;;;;;4.00;3.20;;;10.40;99.90;;;;;;5069633;28;20108;-68
2023/02/19 00:14:13;;;;;;;5.00;3.60;;;10.40;99.90;;;;;;5074867;28;20048;-67
2023/02/19 00:16:39;;;;;;;4.38;2.80;;;10.40;99.90;;;;;;5056146;28;20059;-69
2023/02/19 00:19:07;;;;;;;4.63;3.22;;;10.40;99.90;;;;;;5074438;28;20461;-69
2023/02/19 00:21:33;;;;;;;4.03;3.08;;;10.50;99.90;;;;;;5076983;28;20037;-70
2023/02/19 00:24:01;;;;;;;5.30;3.10;;;10.40;99.90;;;;;;5076302;28;20029;-70
2023/02/19 00:26:27;;;;;;;5.85;3.03;;;10.40;99.90;;;;;;5040684;28;20044;-69
2023/02/19 00:28:54;;;;;;;4.28;2.80;;;10.50;99.90;;;;;;5055942;28;20017;-69
2023/02/19 00:31:28;;;;;;;3.97;2.70;;;10.50;99.90;;;;;;5062867;28;20504;-69
2023/02/19 00:33:56;;;;;;;5.32;2.95;;;10.40;99.90;;;;;;5055911;28;20028;-69
2023/02/19 00:36:23;;;;;;;3.15;2.33;;;10.50;99.90;;;;;;5056446;28;20025;-68
2023/02/19 00:38:49;;;;;;;3.90;2.60;;;10.50;99.90;;;;;;5055273;28;20025;-70
2023/02/19 00:41:19;;;;;;;3.57;2.47;;;10.50;99.90;;;;;;5054771;28;20051;-69
2023/02/19 00:43:53;;;;;;;3.13;2.40;;;10.40;99.90;;;;;;5036581;28;20053;-69
2023/02/19 00:46:29;;;;;;;2.58;2.00;;;10.40;99.90;;;;;;5055259;28;20032;-69
2023/02/19 00:48:56;;;;;;;4.75;2.72;;;10.40;99.90;;;;;;5071926;28;20417;-69
2023/02/19 00:51:24;;;;;;;4.35;2.30;;;10.40;99.90;;;;;;5044154;28;20116;-68
2023/02/19 00:53:50;;;;;;;2.00;1.80;;;10.50;99.90;;;;;;5069349;28;20107;-68
2023/02/19 00:56:16;;;;;;;3.20;2.60;;;10.50;99.90;;;;;;5057918;28;20017;-69
2023/02/19 00:58:42;;;;;;;3.85;2.30;;;10.40;99.90;;;;;;5054653;28;20389;-69
2023/02/19 01:01:08;;;;;;;4.60;2.67;;;10.50;99.90;;;;;;5065017;28;20092;-69
2023/02/19 01:03:35;;;;;;;3.90;2.80;;;10.50;99.90;;;;;;5054635;28;20025;-68
2023/02/19 01:06:00;;;;;;;;;;;10.50;99.90;;;;;;5054395;28;20029;-68
2023/02/19 01:08:26;;;;;;;2.72;2.10;;;10.60;99.90;;;;;;5036817;28;19954;-69
2023/02/19 01:10:52;;;;;;;3.00;2.25;;;10.60;99.90;;;;;;5053607;28;20061;-70
2023/02/19 01:13:18;;;;;;;3.10;2.38;;;10.60;99.90;;;;;;5054042;28;20032;-68
2023/02/19 01:15:44;;;;;;;4.43;2.47;;;10.60;99.90;;;;;;5039356;28;20062;-69
2023/02/19 01:18:10;;;;;;;3.42;2.30;;;10.50;99.90;;;;;;5073862;28;20127;-68
2023/02/19 01:20:39;;;;;;;3.30;2.20;;;10.50;99.90;;;;;;5071740;28;20051;-69
2023/02/19 01:23:05;;;;;;;3.30;2.17;;;10.50;99.90;;;;;;5073686;28;20423;-68
2023/02/19 01:25:30;;;;;;;4.97;2.17;;;10.40;99.90;;;;;;5055174;28;20028;-68
2023/02/19 01:27:56;;;;;;;2.57;2.03;;;10.50;99.90;;;;;;5073478;28;20020;-68
2023/02/19 01:30:21;;;;;;;4.53;1.90;;;10.60;99.90;;;;;;5054091;28;20029;-68
2023/02/19 01:32:47;;;;;;;3.03;1.90;;;10.60;99.90;;;;;;5063119;28;20041;-67
2023/02/19 01:35:13;;;;;;;2.17;1.97;;;10.60;99.90;;;;;;5053488;28;20043;-68
2023/02/19 01:37:38;;;;;;;2.10;1.90;;;10.50;99.90;;;;;;5053541;28;20266;-68
2023/02/19 01:40:04;;;;;;;2.87;1.70;;;10.60;99.90;;;;;;5035956;28;20029;-70
2023/02/19 01:42:30;;;;;;;2.40;1.80;;;10.60;99.90;;;;;;5053409;28;20036;-69
2023/02/19 01:45:32;;;;;;;3.53;2.00;;;10.50;99.90;;;;;;5041918;28;20033;-69
2023/02/19 01:48:21;;;;;;;3.85;2.03;;;10.50;99.90;;;;;;4972381;28;20043;-70
2023/02/19 01:50:51;;;;;;;2.42;1.60;;;10.50;99.90;;;;;;4972421;28;20031;-69
2023/02/19 01:53:23;;;;;;;3.58;1.55;;;10.50;99.90;;;;;;4952653;29;20055;-68
2023/02/19 01:55:52;;;;;;;2.47;1.80;;;10.50;99.90;;;;;;4964452;28;20041;-68
2023/02/19 01:58:19;;;;;;;3.22;1.70;;;10.50;99.90;;;;;;4972064;28;20030;-68
2023/02/19 02:00:44;;;;;;;1.40;1.20;;;10.50;99.90;;;;;;4969504;28;20027;-68
2023/02/19 02:03:10;;;;;;;1.83;1.40;;;10.50;99.90;;;;;;4963067;28;20050;-69
2023/02/19 02:06:08;;;;;;;2.78;1.50;;;10.50;99.90;;;;;;4972315;28;20107;-68
2023/02/19 02:11:18;;;;;;;3.10;1.20;;;10.40;99.90;;;;;;4971949;28;20049;-68
2023/02/19 02:13:45;;;;;;;2.63;1.20;;;10.40;99.90;;;;;;4956789;28;20500;-68
2023/02/19 02:16:22;;;;;;;1.88;1.58;;;10.40;99.90;;;;;;4953341;29;20043;-68
2023/02/19 02:19:05;;;;;;;;;;;10.40;99.90;;;;;;4970606;28;20061;-69
2023/02/19 02:21:59;;;;;;;2.75;1.50;;;10.40;99.90;;;;;;4994352;28;19932;-69
2023/02/19 02:24:43;;;;;;;2.50;1.60;;;10.50;99.90;;;;;;5037639;28;20032;-68
2023/02/19 02:27:14;;;;;;;2.25;1.40;;;10.40;99.90;;;;;;5072870;28;20080;-68
2023/02/19 02:30:25;;;;;;;1.65;1.30;;;10.40;99.90;;;;;;5054903;28;20016;-68
2023/02/19 02:33:10;;;;;;;1.85;1.20;;;10.40;99.90;;;;;;5053497;28;20492;-68
2023/02/19 02:35:46;;;;;;;2.03;1.13;;;10.40;99.90;;;;;;5076398;28;20138;-68
2023/02/19 02:38:13;;;;;;;4.50;1.40;;;10.40;99.90;;;;;;5055757;28;20477;-68
2023/02/19 02:40:42;;;;;;;2.45;1.20;;;10.40;99.90;;;;;;5072457;28;20063;-68
2023/02/19 02:43:08;;;;;;;2.03;1.23;;;10.40;99.90;;;;;;5072429;28;20029;-68
2023/02/19 02:45:34;;;;;;;1.30;1.17;;;10.40;99.90;;;;;;5054076;28;20028;-68
2023/02/19 02:48:07;;;;;;;2.07;1.40;;;10.40;99.90;;;;;;5055115;28;20033;-69
2023/02/19 02:51:08;;;;;;;2.05;1.00;;;10.40;99.90;;;;;;5052626;28;20513;-68
2023/02/19 02:56:28;;;;;;;1.50;1.15;;;10.40;99.90;;;;;;5054297;28;20028;-67
2023/02/19 02:58:56;;;;;;;2.67;1.05;;;10.30;99.90;;;;;;5039316;28;20126;-69
2023/02/19 03:05:50;;;;;;;1.77;1.30;;;10.20;99.90;;;;;;5078272;28;20040;-69
2023/02/19 03:07:27;;;;;;;2.80;1.20;;;10.20;99.90;;;;;;5080394;28;20028;-68
2023/02/19 03:09:55;;;;;;;1.75;1.20;;;10.20;99.90;;;;;;5078488;28;20127;-68
2023/02/19 03:20:49;;;;;;;1.30;1.00;;;10.10;99.90;;;;;;5075722;28;20035;-69
2023/02/19 03:23:17;;;;;;;1.45;1.00;;;10.10;99.90;;;;;;5075647;28;20401;-68
2023/02/19 03:31:19;;;;;;;2.10;0.90;;;10.10;99.90;;;;;;5075246;28;20083;-69
2023/02/19 03:33:52;;;;;;;1.23;0.90;;;10.10;99.90;;;;;;5074719;28;20025;-68
2023/02/19 03:36:26;;;;;;;2.38;0.98;;;10.10;99.90;;;;;;5057904;28;20024;-68
2023/02/19 03:39:01;;;;;;;1.70;1.20;;;10.10;99.90;;;;;;5076115;28;20059;-67
2023/02/19 03:41:45;;;;;;;1.75;1.05;;;10.10;99.90;;;;;;5074721;28;20499;-68
2023/02/19 03:44:15;;;;;;;1.60;1.30;;;10.10;99.90;;;;;;5075179;28;20107;-68
2023/02/19 03:47:04;;;;;;;1.33;0.80;;;10.20;99.90;;;;;;5075288;28;20481;-67
2023/02/19 03:49:59;;;;;;;2.33;0.90;;;10.20;99.90;;;;;;5066282;28;20060;-67
2023/02/19 03:52:45;;;;;;;1.83;1.20;;;10.20;99.90;;;;;;4981049;28;20042;-67
2023/02/19 03:55:18;;;;;;;1.05;0.80;;;10.10;99.90;;;;;;5049916;28;20021;-68
2023/02/19 03:57:54;;;;;;;1.30;1.15;;;10.10;99.90;;;;;;5054997;28;20017;-67
2023/02/19 04:00:29;;;;;;;1.40;1.00;;;10.10;99.90;;;;;;5055417;28;20017;-68
2023/02/19 04:03:17;;;;;;;1.40;0.80;;;10.20;99.90;;;;;;5068621;28;20024;-68
2023/02/19 04:05:52;;;;;;;2.08;0.90;;;10.20;99.90;;;;;;5039871;28;20036;-68
2023/02/19 04:08:20;;;;;;;2.03;0.82;;;10.20;99.90;;;;;;5074009;28;20055;-69
2023/02/19 04:10:47;;;;;;;2.33;0.98;;;10.20;99.90;;;;;;5074831;28;20016;-68
2023/02/19 04:13:25;;;;;;;3.15;1.00;;;10.30;99.90;;;;;;5048038;28;20096;-68
2023/02/19 04:15:54;;;;;;;3.75;1.15;;;10.30;99.90;;;;;;5037056;28;20449;-68
2023/02/19 04:18:28;;;;;;;1.23;0.85;;;10.30;99.90;;;;;;5055088;28;20029;-68
2023/02/19 04:20:55;;;;;;;1.48;0.90;;;10.20;99.90;;;;;;5057458;28;20036;-68
2023/02/19 04:23:24;;;;;;;1.55;1.10;;;10.10;99.90;;;;;;5037406;28;20032;-68
2023/02/19 04:25:54;;;;;;;1.02;0.88;;;10.20;99.90;;;;;;5067802;28;20441;-68
2023/02/19 04:28:20;;;;;;;1.30;0.95;;;10.10;99.90;;;;;;5036685;28;20453;-67
2023/02/19 04:30:46;;;;;;;1.48;0.80;;;10.00;99.90;;;;;;5036682;28;20052;-67
2023/02/19 04:33:11;;;;;;;1.20;0.87;;;10.00;99.90;;;;;;5054706;28;20028;-68
2023/02/19 04:35:37;;;;;;;1.23;0.80;;;10.10;99.90;;;;;;5055782;28;20025;-68
2023/02/19 04:38:03;;;;;;;2.63;1.10;;;10.10;99.90;;;;;;5054417;28;20033;-68
2023/02/19 04:40:29;;;;;;;1.33;1.00;;;10.10;99.90;;;;;;5036865;28;20021;-68
2023/02/19 04:42:54;;;;;;;1.70;0.97;;;10.10;99.90;;;;;;5054184;28;20060;-69
2023/02/19 04:45:20;;;;;;;1.00;0.90;;;10.10;99.90;;;;;;5062842;28;20052;-68
2023/02/19 04:47:45;;;;;;;1.27;1.03;;;10.00;99.90;;;;;;5074155;28;20025;-67
2023/02/19 04:50:11;;;;;;;2.27;1.10;;;10.00;99.90;;;;;;5073954;28;20020;-67
2023/02/19 04:52:36;;;;;;;2.50;0.90;;;10.00;99.90;;;;;;5073836;28;20021;-67
2023/02/19 04:55:02;;;;;;;1.30;1.10;;;9.80;99.90;;;;;;5056026;28;20454;-68
2023/02/19 04:57:27;;;;;;;1.10;0.90;;;9.80;99.90;;;;;;5053712;28;20056;-67
2023/02/19 04:59:53;;;;;;;2.57;0.90;;;9.70;99.90;;;;;;5036116;28;20025;-67
2023/02/19 05:02:18;;;;;;;1.73;0.87;;;9.70;99.90;;;;;;5035802;28;20029;-68
2023/02/19 05:04:44;;;;;;;1.33;1.00;;;9.70;99.90;;;;;;5035943;28;20064;-67
2023/02/19 05:07:09;;;;;;;1.20;0.90;;;9.70;99.90;;;;;;5055268;28;20090;-68
2023/02/19 05:09:35;;;;;;;1.10;0.80;;;9.70;99.90;;;;;;5056661;28;20017;-69
2023/02/19 05:12:01;;;;;;;0.97;0.80;;;9.60;99.90;;;;;;5057325;28;20104;-68
2023/02/19 05:14:26;;;;;;;1.10;0.80;;;9.70;99.90;;;;;;5072824;28;20097;-68
2023/02/19 05:16:52;;;;;;;1.20;0.80;;;9.70;99.90;;;;;;5055486;28;20031;-67
2023/02/19 05:19:17;;;;;;;0.80;0.60;;;9.60;99.90;;;;;;5057110;28;20131;-68
2023/02/19 05:21:43;;;;;;;1.20;0.80;;;9.60;99.90;;;;;;5058703;28;20032;-68
2023/02/19 05:24:08;;;;;;;1.10;0.90;;;9.50;99.90;;;;;;5061685;28;20052;-68
2023/02/19 05:26:35;;;;;;;1.30;0.90;;;9.50;99.90;;;;;;5074087;28;20029;-68
2023/02/19 05:29:00;;;;;;;1.30;1.02;;;9.50;99.90;;;;;;5064228;28;20028;-69
2023/02/19 05:31:26;;;;;;;1.63;1.00;;;9.50;99.90;;;;;;5054828;28;20029;-68
2023/02/19 05:33:54;;;;;;;1.30;0.85;;;9.50;99.90;;;;;;5054285;28;20017;-69
2023/02/19 05:36:21;;;;;;;1.45;1.00;;;9.40;99.90;;;;;;5053962;28;20028;-68
2023/02/19 05:38:50;;;;;;;1.10;0.90;;;9.40;99.90;;;;;;5053813;28;20025;-68
2023/02/19 05:41:18;;;;;;;1.20;0.73;;;9.40;99.90;;;;;;5052994;28;20028;-68
2023/02/19 05:43:46;;;;;;;2.05;0.80;;;9.40;99.90;;;;;;5054373;28;20418;-68
2023/02/19 05:46:14;;;;;;;1.88;0.80;;;9.40;99.90;;;;;;5035495;28;20056;-69
2023/02/19 05:48:40;;;;;;;2.35;0.85;;;9.40;99.90;;;;;;5053446;28;20021;-68
2023/02/19 05:51:09;;;;;;;1.40;0.80;;;9.50;99.90;;;;;;5053032;28;20021;-69
2023/02/19 05:53:35;;;;;;;1.80;0.70;;;9.50;99.90;;;;;;5035591;28;20263;-68
2023/02/19 05:56:01;;;;;;;2.92;0.88;;;9.50;99.90;;;;;;5036157;28;20040;-68
2023/02/19 05:58:27;;;;;;;1.80;0.80;;;9.50;99.90;;;;;;5053727;28;20045;-68
2023/02/19 06:00:52;;;;;;;2.25;1.42;;;9.50;99.90;;;;;;5054207;28;20025;-69
2023/02/19 06:03:18;;;;;;;1.40;0.93;;;9.50;99.90;;;;;;5035984;28;20115;-67
2023/02/19 06:05:44;;;;;;;1.10;0.80;;;9.50;99.90;;;;;;5039294;28;20021;-68
2023/02/19 06:08:12;;;;;;;1.20;0.80;;;9.50;99.90;;;;;;5073257;28;20024;-69
2023/02/19 06:10:41;;;;;;;1.10;0.80;;;9.40;99.90;;;;;;5072567;28;20477;-69
2023/02/19 06:13:08;;;;;;;0.82;0.77;;;9.40;99.90;;;;;;5072920;28;20028;-68
2023/02/19 06:15:34;;;;;;;1.10;0.90;;;9.50;99.90;;;;;;5057258;28;20098;-68
2023/02/19 06:18:00;;;;;;;1.23;0.80;;;9.50;99.90;;;;;;5069723;28;20507;-69
2023/02/19 06:20:26;;;;;;;1.80;0.88;;;9.50;99.90;;;;;;5054916;28;20090;-68
2023/02/19 06:22:51;;;;;;;1.50;0.87;;;9.40;99.90;;;;;;5055818;28;20025;-68
2023/02/19 06:25:18;;;;;;;0.93;0.70;;;9.50;99.90;;;;;;5053479;28;20255;-69
2023/02/19 06:27:46;;;;;;;1.63;0.93;;;9.60;99.90;;;;;;5061985;28;20394;-68
2023/02/19 06:30:12;;;;;;;1.23;0.80;;;9.50;99.90;;;;;;5072587;28;20353;-68
2023/02/19 06:32:38;;;;;;;1.00;0.80;;;9.50;99.90;;;;;;5060578;28;20095;-67
2023/02/19 06:35:04;;;;;;;1.07;0.80;;;9.60;99.90;;;;;;5079559;28;20495;-68
2023/02/19 06:37:29;;;;;;;0.95;0.77;;;9.50;99.90;;;;;;5077906;28;20036;-68
2023/02/19 06:39:55;;;;;;;1.20;0.80;;;9.50;99.90;;;;;;5079675;28;20035;-67
2023/02/19 06:42:21;;;;;;;1.50;0.83;;;9.50;99.90;;;;;;5053336;28;20025;-68
2023/02/19 06:44:46;;;;;;;1.53;1.00;;;9.50;99.90;;;;;;5061329;28;20051;-68
2023/02/19 06:47:12;;;;;;;1.47;1.07;;;9.40;99.90;;;;;;5075733;28;20115;-68
2023/02/19 06:49:40;;;;;;;1.30;1.03;;;9.40;99.90;;;;;;5065310;28;20493;-68
2023/02/19 06:52:06;;;;;;;1.90;1.00;;;9.50;99.90;;;;;;5045434;28;20047;-67
2023/02/19 06:54:34;;;;;;;2.03;0.90;;;9.50;99.90;;;;;;5079309;28;20438;-69
2023/02/19 06:57:00;;;;;;;2.90;1.13;;;9.50;99.90;;;;;;5065529;28;20025;-68
2023/02/19 06:59:26;;;;;;;1.10;0.87;;;9.50;99.90;;;;;;5060293;28;20529;-67
2023/02/19 07:01:51;;;;;;;3.80;1.40;;;9.50;99.90;;;;;;5041284;28;20490;-68
2023/02/19 07:04:17;;;;;;;1.60;0.93;;;9.60;99.90;;;;;;5075364;28;20032;-67
2023/02/19 07:06:43;;;;;;;2.00;0.83;;;9.50;99.90;;;;;;5060784;28;20024;-67
2023/02/19 07:09:09;;;;;;;0.90;0.80;;;9.60;99.90;;;;;;5061496;28;20037;-68
2023/02/19 07:11:37;;;;;;;1.00;0.80;;;9.60;99.90;;;;;;5077796;28;20512;-68
2023/02/19 07:14:06;;;;;;;1.50;1.02;;;9.60;99.90;;;;;;5061326;28;20032;-67
2023/02/19 07:16:32;;;;;;;2.50;1.05;;;9.70;99.90;;;;;;5079175;28;20017;-68
2023/02/19 07:18:58;;;;;;;1.95;1.10;;;9.70;99.90;;;;;;5075710;28;20033;-66
2023/02/19 07:21:24;;;;;;;;;;;9.80;99.90;;;;;;5068244;28;20032;-68
2023/02/19 07:23:50;;;;;;;1.90;1.13;;;9.80;99.90;;;;;;5059634;28;19958;-67
2023/02/19 07:26:18;;;;;;;1.80;1.50;;;9.90;99.90;;;;;;5071601;28;20300;-68
2023/02/19 07:28:46;;;;;;;3.08;1.73;;;9.90;99.90;;;;;;5066851;28;20392;-67
2023/02/19 07:31:12;;;;;;;2.00;1.40;;;9.90;99.90;;;;;;5076992;28;20534;-68
2023/02/19 07:33:38;;;;;;;2.17;1.85;;;9.90;99.90;;;;;;5078824;28;20036;-67
2023/02/19 07:36:06;;;;;;;3.00;1.63;;;9.90;99.90;;;;;;5045420;28;20104;-68
2023/02/19 07:38:32;;;;;;;4.32;1.77;;;10.00;99.90;;;;;;5058546;28;20025;-67
2023/02/19 07:41:00;;;;;;;2.10;1.30;;;10.00;99.90;;;;;;5040941;28;20055;-68
2023/02/19 07:43:29;;;;;;;2.35;1.50;;;10.00;99.90;;;;;;5057267;28;20454;-67
2023/02/19 07:45:54;;;;;;;2.25;1.45;;;10.10;99.90;;;;;;5055634;28;20032;-68
2023/02/19 07:48:20;;;;;;;1.80;1.50;;;10.10;99.90;;;;;;5070121;28;20029;-68
2023/02/19 07:50:59;;;;;;;2.55;1.83;;;10.10;99.90;;;;;;5037663;28;20029;-68
2023/02/19 07:53:25;;;;;;;2.95;1.48;;;10.00;99.90;;;;;;5055425;28;20037;-68
2023/02/19 07:55:51;;;;;;;;;;;10.00;99.90;;;;;;5055881;28;20025;-68
2023/02/19 07:58:16;;;;;;;2.25;1.80;;;10.10;99.90;;;;;;5066252;28;19919;-68
2023/02/19 08:00:42;;;;;;;2.43;1.63;;;10.00;99.90;;;;;;5075175;28;20059;-68
2023/02/19 08:03:08;;;;;;;2.70;1.70;;;10.00;99.90;;;;;;5071225;28;20067;-68
2023/02/19 08:05:39;;;;;;;2.78;2.13;;;10.00;99.90;;;;;;5069355;28;20024;-67
2023/02/19 08:08:07;;;;;;;2.10;1.83;;;10.00;99.90;;;;;;5073310;28;20036;-67
2023/02/19 08:13:24;;;;;;;2.70;2.28;;;9.90;99.90;;;;;;5073860;28;20112;-67
2023/02/19 08:15:49;;;;;;;2.80;2.00;;;9.80;99.90;;;;;;5077809;28;20015;-68
2023/02/19 08:18:16;;;;;;;2.77;2.20;;;9.80;99.90;;;;;;5077971;28;20024;-68
2023/02/19 08:20:42;;;;;;;3.50;2.10;;;9.80;99.90;;;;;;5059530;28;20028;-68
2023/02/19 08:23:09;;;;;;;3.22;2.08;;;9.80;99.90;;;;;;5074845;28;20115;-68
2023/02/19 08:25:35;;;;;;;2.88;2.15;;;9.90;99.90;;;;;;5065317;28;20075;-70
2023/02/19 08:28:00;;;;;;;3.00;1.95;;;10.00;99.90;;;;;;5056665;28;20052;-70
2023/02/19 08:30:27;;;;;;;2.87;2.00;;;10.10;99.90;;;;;;5074897;28;20389;-75
2023/02/19 08:32:53;;;;;;;2.38;2.00;;;10.10;99.90;;;;;;5075140;28;20021;-74
2023/02/19 08:35:19;;;;;;;3.30;2.15;;;10.20;99.90;;;;;;5057463;28;20043;-74
2023/02/19 08:37:45;;;;;;;5.03;2.30;;;10.30;99.90;;;;;;5075138;28;20032;-74
2023/02/19 08:40:11;;;;;;;4.57;2.10;;;10.40;99.90;;;;;;5075233;28;20393;-72
2023/02/19 08:42:36;;;;;;;3.10;2.53;;;10.40;99.90;;;;;;5074604;28;20078;-74
2023/02/19 08:45:03;;;;;;;3.40;2.43;;;10.50;99.90;;;;;;5057254;28;20024;-73
2023/02/19 08:47:28;;;;;;;3.40;2.35;;;10.50;99.90;;;;;;5056627;28;20148;-74
2023/02/19 08:49:54;;;;;;;3.13;2.13;;;10.60;99.90;;;;;;5056723;28;20020;-73
2023/02/19 08:52:19;;;;;;;3.23;1.97;;;10.60;99.90;;;;;;5056166;28;20021;-70
2023/02/19 08:54:45;;;;;;;2.37;1.97;;;10.70;99.90;;;;;;5071559;28;20070;-65
2023/02/19 08:57:10;;;;;;;2.97;2.37;;;10.80;99.90;;;;;;5053940;28;20033;-66
2023/02/19 08:59:36;;;;;;;4.73;2.63;;;10.80;99.90;;;;;;5054720;28;20334;-66
2023/02/19 09:02:01;;;;;;;4.10;2.30;;;10.80;99.90;;;;;;5055241;28;20029;-65
2023/02/19 09:04:27;;;;;;;3.77;2.20;;;10.80;99.90;;;;;;5053581;28;20434;-65
2023/02/19 09:06:53;;;;;;;4.97;2.10;;;10.90;99.90;;;;;;5036727;28;20111;-65
2023/02/19 09:09:18;;;;;;;3.47;2.03;;;10.90;99.90;;;;;;5054055;28;20386;-65
2023/02/19 09:11:44;;;;;;;2.20;2.00;;;11.00;99.90;;;;;;5053999;28;20066;-73
2023/02/19 09:14:09;;;;;;;4.13;2.30;;;10.90;99.90;;;;;;5069658;28;20017;-75
2023/02/19 09:16:36;;;;;;;3.77;2.20;;;10.80;99.90;;;;;;5056190;28;20122;-70
2023/02/19 09:19:02;;;;;;;4.25;2.10;;;10.90;99.90;;;;;;5074230;28;20050;-70
2023/02/19 09:21:28;;;;;;;3.00;1.95;;;10.90;99.90;;;;;;5071326;28;20032;-70
2023/02/19 09:23:54;;;;;;;3.35;2.40;;;11.00;99.90;;;;;;5036134;28;20029;-71
2023/02/19 09:26:19;;;;;;;3.97;2.30;;;11.00;99.90;;;;;;5053431;28;20043;-67
2023/02/19 09:28:48;;;;;;;3.23;2.10;;;11.00;99.90;;;;;;5056211;28;20025;-75
2023/02/19 09:31:14;;;;;;;4.57;2.20;;;11.10;99.90;;;;;;5036272;28;20025;-70
2023/02/19 09:33:44;;;;;;;;;;;11.10;99.90;;;;;;5039045;28;20075;-74
2023/02/19 09:36:10;;;;;;;6.22;2.30;;;11.10;99.90;;;;;;5056398;28;20021;-74
2023/02/19 09:38:36;;;;;;;2.40;1.70;;;11.20;99.90;;;;;;5073423;28;20099;-73
2023/02/19 09:41:16;;;;;;;6.87;2.33;;;11.20;99.90;;;;;;5055906;28;20485;-69
2023/02/19 09:43:42;;;;;;;6.20;2.00;;;11.30;99.90;;;;;;5073891;28;20723;-74
2023/02/19 09:46:39;;;;;;;4.13;2.45;;;11.30;99.90;;;;;;5074145;28;20036;-74
2023/02/19 09:49:10;;;;;;;2.63;2.13;;;11.30;99.90;;;;;;5055339;28;20036;-74
2023/02/19 09:51:38;;;;;;;2.83;1.90;;;11.40;99.90;;;;;;5055796;28;20048;-73
2023/02/19 09:54:06;;;;;;;4.05;2.08;;;11.40;99.90;;;;;;5055997;28;20028;-74
2023/02/19 09:56:32;;;;;;;3.42;1.70;;;11.30;99.90;;;;;;5061938;28;20021;-74
2023/02/19 09:58:59;;;;;;;4.30;2.10;;;11.40;99.90;;;;;;5054065;28;20024;-73
2023/02/19 10:01:31;;;;;;;5.40;2.28;;;11.20;99.90;;;;;;5054241;28;20033;-74
2023/02/19 10:03:57;;;;;;;3.67;2.30;;;11.30;99.90;;;;;;5057261;28;20040;-73
2023/02/19 10:06:25;;;;;;;3.70;2.23;;;11.20;99.90;;;;;;5057511;28;20074;-72
2023/02/19 10:09:19;;;;;;;5.22;2.33;;;11.30;99.90;;;;;;5075253;28;20082;-74
2023/02/19 10:11:45;;;;;;;4.78;2.10;;;11.50;99.90;;;;;;5060871;28;20020;-73
2023/02/19 10:14:18;;;;;;;4.20;2.20;;;11.50;99.90;;;;;;5073661;28;20028;-73
2023/02/19 10:16:46;;;;;;;4.35;2.30;;;11.50;99.90;;;;;;5056693;28;20068;-68
2023/02/19 10:19:12;;;;;;;3.13;2.22;;;11.50;99.90;;;;;;5074407;28;20055;-70
2023/02/19 10:21:39;;;;;;;4.18;2.10;;;11.60;99.90;;;;;;5078693;28;20090;-70
2023/02/19 10:24:05;;;;;;;5.90;2.50;;;11.70;99.90;;;;;;5060689;28;20067;-70
2023/02/19 10:26:35;;;;;;;4.22;2.15;;;11.70;99.90;;;;;;5037927;28;20024;-72
2023/02/19 10:29:02;;;;;;;4.13;2.42;;;11.70;99.90;;;;;;5049742;28;20020;-70
2023/02/19 10:31:29;;;;;;;5.00;2.65;;;11.70;99.90;;;;;;5073323;28;20048;-75
2023/02/19 10:33:57;;;;;;;3.53;2.30;;;11.70;99.90;;;;;;5053705;28;20108;-73
2023/02/19 10:36:38;;;;;;;4.85;2.40;;;11.50;99.90;;;;;;5035529;28;20025;-74
2023/02/19 10:39:29;;;;;;;6.28;2.03;;;11.60;99.90;;;;;;5048990;28;20048;-74
2023/02/19 10:41:55;;;;;;;4.90;2.33;;;11.70;99.90;;;;;;5034259;28;20482;-74
2023/02/19 10:44:27;;;;;;;4.77;2.20;;;11.70;99.90;;;;;;5053359;28;20025;-72
2023/02/19 10:46:56;;;;;;;4.53;2.00;;;11.90;99.90;;;;;;5036706;28;20065;-74
2023/02/19 10:49:27;;;;;;;5.43;3.05;;;12.10;99.90;;;;;;5035943;28;20017;-73
2023/02/19 10:51:55;;;;;;;3.92;2.20;;;12.30;99.90;;;;;;5054070;28;20501;-75
2023/02/19 10:54:33;;;;;;;3.42;2.00;;;12.50;99.90;;;;;;5037095;28;20091;-75
2023/02/19 10:57:24;;;;;;;6.07;2.47;;;12.50;99.90;;;;;;5037264;28;20029;-75
2023/02/19 10:59:52;;;;;;;3.28;2.17;;;12.50;99.90;;;;;;5065853;28;20108;-74
2023/02/19 11:02:20;;;;;;;4.25;1.95;;;12.50;99.90;;;;;;5052832;28;20043;-74
2023/02/19 11:05:16;;;;;;;3.33;1.88;;;12.40;99.90;;;;;;5040822;28;20021;-73
2023/02/19 11:08:01;;;;;;;4.90;2.22;;;12.40;99.90;;;;;;5036592;28;20115;-73
2023/02/19 11:10:33;;;;;;;3.72;1.98;;;12.70;99.90;;;;;;5036836;28;20124;-74
2023/02/19 11:13:02;;;;;;;3.40;1.92;;;12.90;99.90;;;;;;5040713;28;20036;-75
2023/02/19 11:15:29;;;;;;;5.18;2.05;;;12.90;99.90;;;;;;5045666;28;20048;-74
2023/02/19 11:18:07;;;;;;;3.83;1.90;;;12.70;99.90;;;;;;5048578;28;20035;-75
2023/02/19 11:20:33;;;;;;;5.32;2.47;;;12.70;99.90;;;;;;5063058;28;20100;-68
2023/02/19 11:23:03;;;;;;;6.25;2.17;;;12.80;99.90;;;;;;5057961;28;20036;-68
2023/02/19 11:25:29;;;;;;;5.28;2.25;;;12.90;99.90;;;;;;5060940;28;20482;-68
2023/02/19 11:28:19;;;;;;;;;;;13.20;99.90;;;;;;5056135;28;20032;-67
2023/02/19 11:30:46;;;;;;;3.65;1.70;;;13.40;99.90;;;;;;5045578;28;20310;-67
2023/02/19 11:33:15;;;;;;;6.13;2.08;;;13.60;99.90;;;;;;5066549;28;20029;-67
2023/02/19 11:35:41;;;;;;;5.78;2.40;;;13.50;99.90;;;;;;5075949;28;20020;-68
2023/02/19 11:38:10;;;;;;;3.63;1.90;;;13.50;99.90;;;;;;5075391;28;20507;-68
2023/02/19 11:40:58;;;;;;;4.82;1.85;;;13.30;99.90;;;;;;5074620;28;20032;-67
2023/02/19 11:43:39;;;;;;;3.60;1.80;;;13.20;99.90;;;;;;5041338;28;20069;-73
2023/02/19 11:46:15;;;;;;;6.82;2.28;;;13.00;99.90;;;;;;5043197;28;20017;-71
2023/02/19 11:48:49;;;;;;;4.82;1.70;;;12.90;99.90;;;;;;5059644;28;20032;-70
2023/02/19 11:51:45;;;;;;;3.95;1.90;;;12.90;99.90;;;;;;5058806;28;20070;-71
2023/02/19 11:54:13;;;;;;;5.20;2.13;;;12.90;99.90;;;;;;5057610;28;20049;-70
2023/02/19 11:56:40;;;;;;;6.40;1.80;;;13.00;99.90;;;;;;5057793;28;20095;-70
2023/02/19 11:59:32;;;;;;;4.82;1.88;;;12.80;99.90;;;;;;5051235;28;20028;-71
2023/02/19 12:02:23;;;;;;;6.57;2.15;;;12.80;99.90;;;;;;5067135;28;20374;-71
2023/02/19 12:05:13;;;;;;;8.48;2.22;;;12.70;99.90;;;;;;5066045;28;20481;-70
2023/02/19 12:08:10;;;;;;;3.38;1.80;;;12.90;99.90;;;;;;5073345;28;20116;-70
2023/02/19 12:10:58;;;;;;;3.30;1.80;;;13.00;99.90;;;;;;5057223;28;20123;-73
2023/02/19 12:13:27;;;;;;;4.22;1.88;;;13.00;99.90;;;;;;5059149;28;20036;-74
2023/02/19 12:16:07;;;;;;;4.30;2.15;;;13.00;99.90;;;;;;5049157;28;20031;-73
2023/02/19 12:18:34;;;;;;;4.70;2.03;;;13.00;99.90;;;;;;5044760;28;20029;-76
2023/02/19 12:21:18;;;;;;;;;;;13.00;99.90;;;;;;5042790;28;20461;-72
2023/02/19 12:24:03;;;;;;;4.93;2.13;;;13.20;99.90;;;;;;5071325;28;19947;-69
2023/02/19 12:27:02;;;;;;;5.28;2.10;;;13.00;99.90;;;;;;5062835;28;20032;-68
2023/02/19 12:30:20;;;;;;;5.03;2.53;;;12.80;99.90;;;;;;5058727;28;20064;-71
2023/02/19 12:32:53;;;;;;;4.78;2.15;;;12.70;99.90;;;;;;4969253;28;20523;-72
2023/02/19 12:35:46;;;;;;;5.40;2.28;;;12.80;99.90;;;;;;4970621;28;20065;-73
2023/02/19 12:38:19;;;;;;;6.65;2.42;;;13.00;99.90;;;;;;4975403;28;20027;-70
2023/02/19 12:41:10;;;;;;;6.53;2.17;;;12.90;99.90;;;;;;4975204;28;20038;-73
2023/02/19 12:43:40;;;;;;;7.18;2.30;;;12.90;99.90;;;;;;4976355;28;20535;-74
2023/02/19 12:46:14;;;;;;;10.77;2.28;;;12.70;99.90;;;;;;4957252;28;20031;-69
2023/02/19 12:48:41;;;;;;;5.15;2.15;;;12.60;99.90;;;;;;4975628;28;20062;-73
2023/02/19 12:51:14;;;;;;;5.15;2.03;;;12.50;99.90;;;;;;4978337;28;20015;-69
2023/02/19 12:54:00;;;;;;;8.00;2.30;;;12.40;99.90;;;;;;4971875;28;20042;-73
2023/02/19 12:56:38;;;;;;;3.95;2.10;;;12.20;99.90;;;;;;4988496;28;20023;-68
2023/02/19 12:59:15;;;;;;;6.68;2.13;;;12.10;99.90;;;;;;4961054;28;20473;-68
2023/02/19 13:01:56;;;;;;;6.88;2.17;;;12.20;99.90;;;;;;4951072;28;20043;-68
2023/02/19 13:04:44;;;;;;;4.97;2.08;;;12.30;99.90;;;;;;4969551;28;20042;-68
2023/02/19 13:07:22;;;;;;;5.22;1.80;;;12.40;99.90;;;;;;4988261;28;20050;-69
2023/02/19 13:09:57;;;;;;;6.95;2.08;;;12.60;99.90;;;;;;5062891;28;20112;-69
2023/02/19 13:12:27;;;;;;;6.22;2.10;;;12.70;99.90;;;;;;5044446;28;20361;-68
2023/02/19 13:15:01;;;;;;;4.97;1.60;;;12.80;99.90;;;;;;5063954;28;20084;-68
2023/02/19 13:17:41;;;;;;;6.50;2.20;;;12.90;99.90;;;;;;5067437;28;20029;-68
2023/02/19 13:20:23;;;;;;;5.47;1.83;;;13.00;99.90;;;;;;5072603;28;20031;-68
2023/02/19 13:26:08;;;;;;;8.20;1.58;;;13.00;99.90;;;;;;5077630;28;20047;-69
2023/02/19 13:28:52;;;;;;;4.32;1.65;;;13.00;99.90;;;;;;5075348;28;20024;-68
2023/02/19 13:32:03;;;;;;;5.20;1.52;;;13.00;99.90;;;;;;5039160;28;20076;-69
2023/02/19 13:35:07;;;;;;;6.85;2.42;;;13.00;99.90;;;;;;5041888;28;20049;-68
2023/02/19 13:37:34;;;;;;;6.57;1.80;;;13.10;99.90;;;;;;5037397;28;20021;-68
2023/02/19 13:40:05;;;;;;;6.55;2.15;;;13.00;99.90;;;;;;5054531;28;20104;-69